Time;durP1;ratioP1;P1;durP2;ratioP2;P2;SDS_P1;SDS_P2;PMS_P1;PMS_P2;Temp;Humidity;BMP_temperature;BMP_pressure;BME280_temperature;BME280_humidity;BME280_pressure;Samples;Min_cycle;Max_cycle;Signal;HPM_P1;HPM_P2
2022/03/22 00:04:25;;;;;;;6.93;6.22;;;16.90;58.60;;;;;;10380914;28;20449;-60
2022/03/22 00:09:26;;;;;;;7.80;6.47;;;16.90;58.50;;;;;;10412021;28;20038;-60
2022/03/22 00:14:27;;;;;;;9.30;6.80;;;16.90;58.50;;;;;;10405284;28;20038;-60
2022/03/22 00:19:27;;;;;;;8.00;6.05;;;16.90;58.60;;;;;;10374898;28;20116;-60
2022/03/22 00:24:29;;;;;;;9.68;6.78;;;16.80;58.60;;;;;;10377703;28;20512;-60
2022/03/22 00:29:29;;;;;;;10.45;7.30;;;16.80;58.60;;;;;;10375716;28;20414;-60
2022/03/22 00:34:30;;;;;;;8.38;6.80;;;16.90;58.50;;;;;;10397867;28;20109;-60
2022/03/22 00:39:31;;;;;;;8.15;6.57;;;16.90;58.50;;;;;;10416500;28;20053;-60
2022/03/22 00:44:31;;;;;;;9.07;7.47;;;16.80;58.50;;;;;;10396431;28;20064;-60
2022/03/22 00:49:33;;;;;;;9.55;7.95;;;16.80;58.50;;;;;;10408293;28;20112;-60
2022/03/22 00:54:35;;;;;;;8.95;7.03;;;16.80;58.40;;;;;;10375689;28;20034;-60
2022/03/22 01:04:56;;;;;;;9.90;6.97;;;16.80;58.30;;;;;;10388470;28;20042;-60
2022/03/22 01:09:57;;;;;;;8.52;7.28;;;16.80;58.30;;;;;;10374499;28;20030;-59
2022/03/22 01:14:58;;;;;;;8.95;7.32;;;16.80;58.40;;;;;;10374327;28;20065;-61
2022/03/22 01:19:58;;;;;;;7.63;6.82;;;16.80;58.40;;;;;;10374254;28;20235;-60
2022/03/22 01:24:59;;;;;;;8.77;6.70;;;16.80;58.20;;;;;;10369312;28;20493;-60
2022/03/22 01:30:00;;;;;;;8.43;7.20;;;16.80;58.10;;;;;;10373652;28;20069;-60
2022/03/22 01:35:03;;;;;;;8.10;7.25;;;16.90;58.00;;;;;;10372607;28;20041;-59
2022/03/22 01:40:08;;;;;;;9.32;7.45;;;16.90;57.90;;;;;;10369303;28;20033;-60
2022/03/22 01:45:10;;;;;;;8.93;7.22;;;16.90;57.80;;;;;;10375470;28;20124;-60
2022/03/22 01:50:15;;;;;;;8.27;6.80;;;16.90;57.90;;;;;;10384405;28;20026;-60
2022/03/22 01:55:19;;;;;;;7.53;6.03;;;16.90;58.00;;;;;;10375148;28;20041;-61
2022/03/22 02:00:21;;;;;;;7.60;6.57;;;16.80;58.50;;;;;;10372446;28;20034;-60
2022/03/22 02:10:42;;;;;;;10.23;6.65;;;16.90;57.80;;;;;;10385605;28;20045;-60
2022/03/22 02:15:50;;;;;;;10.45;7.45;;;16.90;57.90;;;;;;10361513;28;20141;-60
2022/03/22 02:20:52;;;;;;;8.07;7.00;;;16.80;57.80;;;;;;10375290;28;20026;-60
2022/03/22 02:25:53;;;;;;;8.25;6.45;;;16.90;57.80;;;;;;10380687;28;20068;-59
2022/03/22 02:30:53;;;;;;;8.13;6.70;;;16.90;57.70;;;;;;10371608;28;20511;-60
2022/03/22 02:35:54;;;;;;;8.30;6.72;;;16.90;57.60;;;;;;10371202;28;20038;-60
2022/03/22 02:40:55;;;;;;;7.63;6.82;;;16.80;57.60;;;;;;10371839;28;20135;-60
2022/03/22 02:45:56;;;;;;;7.75;6.63;;;16.90;57.70;;;;;;10370157;28;20021;-60
2022/03/22 02:50:56;;;;;;;8.18;6.38;;;16.90;57.50;;;;;;10380636;28;20033;-60
2022/03/22 02:55:57;;;;;;;8.65;7.13;;;16.90;57.50;;;;;;10377731;28;20087;-60
2022/03/22 03:00:58;;;;;;;8.52;7.10;;;16.80;57.50;;;;;;10370691;28;20045;-60
2022/03/22 03:05:59;;;;;;;8.27;6.88;;;16.90;57.50;;;;;;10393147;28;20084;-60
2022/03/22 03:11:00;;;;;;;8.65;6.75;;;16.90;57.40;;;;;;10410312;28;20034;-59
2022/03/22 03:16:01;;;;;;;10.43;7.97;;;16.90;57.40;;;;;;10409703;28;20116;-60
2022/03/22 03:21:01;;;;;;;9.52;7.18;;;16.80;57.40;;;;;;10411061;28;20049;-60
2022/03/22 03:26:02;;;;;;;7.65;6.95;;;16.80;58.10;;;;;;10394161;28;20120;-59
2022/03/22 03:31:03;;;;;;;8.30;7.35;;;16.90;57.40;;;;;;10410764;28;20053;-60
2022/03/22 03:36:04;;;;;;;10.60;7.75;;;16.90;57.20;;;;;;10405576;28;20036;-61
2022/03/22 03:51:44;;;;;;;8.13;6.83;;;16.90;57.20;;;;;;10369756;28;20046;-61
2022/03/22 03:56:45;;;;;;;8.77;7.60;;;16.90;57.20;;;;;;10367016;28;20044;-60
2022/03/22 04:01:47;;;;;;;7.25;6.50;;;16.90;57.20;;;;;;10384700;28;20045;-60
2022/03/22 04:06:47;;;;;;;8.68;6.55;;;16.90;57.20;;;;;;10387849;28;20433;-60
2022/03/22 04:11:48;;;;;;;6.85;6.15;;;16.90;57.10;;;;;;10381848;28;20030;-60
2022/03/22 04:16:50;;;;;;;7.97;7.13;;;16.90;57.10;;;;;;10376572;28;20042;-60
2022/03/22 04:21:50;;;;;;;8.70;7.38;;;16.80;57.10;;;;;;10372452;28;20029;-60
2022/03/22 04:26:51;;;;;;;8.13;6.75;;;16.90;57.10;;;;;;10376286;28;20077;-61
2022/03/22 04:32:41;;;;;;;8.13;7.32;;;16.90;57.00;;;;;;10392602;28;20037;-61
2022/03/22 04:37:16;;;;;;;7.40;6.70;;;16.80;57.00;;;;;;10410190;28;20042;-60
2022/03/22 04:42:17;;;;;;;7.75;6.90;;;16.80;57.10;;;;;;10416505;28;20071;-60
2022/03/22 04:47:17;;;;;;;9.02;7.13;;;16.90;56.90;;;;;;10370952;28;20030;-60
2022/03/22 04:57:37;;;;;;;8.45;7.28;;;16.90;56.70;;;;;;10377074;28;20050;-60
2022/03/22 05:02:38;;;;;;;7.57;6.78;;;16.90;56.70;;;;;;10383454;28;20096;-61
2022/03/22 05:07:39;;;;;;;7.30;6.38;;;16.90;56.80;;;;;;10391484;28;20520;-61
2022/03/22 05:12:40;;;;;;;9.45;7.57;;;16.90;57.40;;;;;;10388090;28;20116;-61
2022/03/22 05:17:40;;;;;;;7.63;6.82;;;16.90;56.70;;;;;;10390472;28;20026;-61
2022/03/22 05:22:42;;;;;;;9.82;7.80;;;16.90;56.70;;;;;;10414129;28;20095;-61
2022/03/22 05:27:43;;;;;;;8.65;7.00;;;16.90;56.70;;;;;;10376603;28;20049;-61
2022/03/22 05:32:43;;;;;;;7.90;6.88;;;16.90;56.50;;;;;;10382869;28;20059;-61
2022/03/22 05:37:44;;;;;;;7.28;6.43;;;17.00;57.10;;;;;;10390312;28;20033;-60
2022/03/22 05:42:44;;;;;;;9.15;6.75;;;17.30;55.90;;;;;;10377133;28;20185;-59
2022/03/22 05:47:45;;;;;;;8.55;6.80;;;17.30;56.40;;;;;;10368379;28;20029;-61
2022/03/22 05:52:47;;;;;;;12.88;6.90;;;17.20;57.10;;;;;;10398004;28;20346;-60
2022/03/22 05:57:48;;;;;;;15.18;8.15;;;17.20;57.70;;;;;;10385595;28;20711;-60
2022/03/22 06:02:49;;;;;;;10.30;7.40;;;17.20;58.00;;;;;;10390746;28;20077;-62
2022/03/22 06:07:50;;;;;;;15.35;8.73;;;17.10;58.00;;;;;;10412134;28;20458;-62
2022/03/22 06:12:54;;;;;;;18.50;8.35;;;17.20;58.90;;;;;;10410061;28;20044;-61
2022/03/22 06:18:04;;;;;;;14.38;7.65;;;17.10;58.80;;;;;;10379189;28;20033;-62
2022/03/22 06:23:11;;;;;;;18.23;8.98;;;17.10;58.50;;;;;;10358616;28;20456;-62
2022/03/22 06:28:14;;;;;;;18.77;8.55;;;17.00;58.70;;;;;;10391296;28;20049;-63
2022/03/22 06:33:19;;;;;;;16.70;8.77;;;16.90;58.70;;;;;;10388060;28;20026;-64
2022/03/22 06:38:19;;;;;;;22.45;10.38;;;16.90;59.00;;;;;;10368442;28;20037;-64
2022/03/22 06:43:20;;;;;;;20.52;9.65;;;16.80;60.50;;;;;;10372648;28;20494;-63
2022/03/22 06:48:22;;;;;;;33.83;9.52;;;16.80;59.80;;;;;;10372242;28;20040;-59
2022/03/22 06:53:22;;;;;;;32.85;11.52;;;16.80;59.60;;;;;;10389356;28;20057;-62
2022/03/22 06:58:24;;;;;;;43.72;11.23;;;16.90;59.60;;;;;;10372282;28;20037;-64
2022/03/22 07:03:26;;;;;;;19.73;10.20;;;16.90;59.50;;;;;;10376633;28;20108;-63
2022/03/22 07:08:27;;;;;;;30.58;10.15;;;17.00;59.30;;;;;;10411891;28;20065;-63
2022/03/22 07:13:30;;;;;;;24.55;9.52;;;16.90;59.20;;;;;;10410864;28;20513;-62
2022/03/22 07:18:30;;;;;;;23.35;9.77;;;16.90;59.30;;;;;;10379003;28;20635;-62
2022/03/22 07:23:31;;;;;;;21.55;9.45;;;16.80;59.50;;;;;;10355380;28;20121;-62
2022/03/22 07:28:32;;;;;;;22.17;9.77;;;16.80;59.30;;;;;;10375679;28;20088;-61
2022/03/22 07:33:33;;;;;;;18.60;8.82;;;16.90;59.30;;;;;;10373483;28;20026;-61
2022/03/22 07:38:33;;;;;;;16.73;9.18;;;16.90;59.80;;;;;;10397528;28;20053;-59
2022/03/22 07:43:35;;;;;;;18.38;9.07;;;17.00;59.50;;;;;;10394255;28;20022;-59
2022/03/22 07:48:36;;;;;;;20.38;9.55;;;17.00;58.90;;;;;;10381389;28;20026;-60
2022/03/22 07:53:37;;;;;;;15.65;9.10;;;16.90;59.20;;;;;;10382838;28;20030;-59
2022/03/22 07:58:38;;;;;;;12.98;8.23;;;16.80;59.10;;;;;;10386762;28;20427;-59
2022/03/22 08:03:38;;;;;;;13.63;8.38;;;16.80;59.20;;;;;;10399847;28;20044;-59
2022/03/22 08:08:43;;;;;;;15.43;8.63;;;16.80;59.20;;;;;;10376850;28;20065;-59
2022/03/22 08:13:43;;;;;;;17.17;8.88;;;16.80;59.60;;;;;;10360997;28;20489;-59
2022/03/22 08:18:45;;;;;;;13.18;7.75;;;16.70;59.70;;;;;;10405644;28;20056;-59
2022/03/22 08:23:45;;;;;;;14.10;7.53;;;16.70;59.70;;;;;;10409260;28;20045;-59
2022/03/22 08:28:46;;;;;;;15.07;6.97;;;16.70;59.70;;;;;;10400441;28;20052;-59
2022/03/22 08:33:47;;;;;;;15.30;8.20;;;16.70;59.70;;;;;;10394191;28;20156;-59
2022/03/22 08:38:48;;;;;;;10.80;7.40;;;16.70;59.70;;;;;;10397626;28;20026;-59
2022/03/22 08:43:49;;;;;;;16.23;6.88;;;16.70;59.70;;;;;;10414521;28;20577;-59
2022/03/22 08:48:53;;;;;;;13.38;7.35;;;16.60;59.70;;;;;;10380068;28;20180;-59
2022/03/22 08:53:54;;;;;;;11.57;6.70;;;16.70;59.70;;;;;;10379022;28;20579;-59
2022/03/22 08:58:55;;;;;;;10.25;6.68;;;16.60;59.60;;;;;;10378451;28;20099;-59
2022/03/22 09:09:15;;;;;;;8.77;6.00;;;16.70;59.60;;;;;;10385733;28;20057;-61
2022/03/22 09:14:16;;;;;;;9.40;6.90;;;16.70;59.50;;;;;;10388495;28;20110;-61
2022/03/22 09:19:17;;;;;;;11.32;6.40;;;16.80;59.40;;;;;;10390144;28;20052;-62
2022/03/22 09:24:18;;;;;;;11.40;6.57;;;16.80;59.40;;;;;;10376518;28;20037;-62
2022/03/22 09:29:19;;;;;;;8.38;6.47;;;16.80;59.40;;;;;;10358998;28;1046499;-61
2022/03/22 09:34:21;;;;;;;11.95;7.05;;;16.80;59.50;;;;;;10372561;28;20033;-60
2022/03/22 09:39:22;;;;;;;9.90;6.97;;;16.80;59.50;;;;;;10375138;28;20026;-60
2022/03/22 09:44:23;;;;;;;11.07;6.47;;;16.80;59.50;;;;;;10382148;28;20108;-61
2022/03/22 09:49:24;;;;;;;10.57;7.90;;;16.90;59.50;;;;;;10398967;28;20370;-59
2022/03/22 09:54:25;;;;;;;10.75;7.05;;;16.90;59.50;;;;;;10358094;28;20049;-59
2022/03/22 09:59:25;;;;;;;8.85;6.47;;;16.90;59.50;;;;;;10373510;28;20486;-59
2022/03/22 10:04:40;;;;;;;8.45;6.57;;;16.90;59.50;;;;;;10374284;28;20088;-58
2022/03/22 10:09:40;;;;;;;8.05;6.50;;;17.00;59.40;;;;;;10366644;28;20092;-59
2022/03/22 10:14:42;;;;;;;12.65;7.07;;;17.00;59.40;;;;;;10371513;28;20442;-59
2022/03/22 10:19:51;;;;;;;8.00;6.15;;;17.00;59.30;;;;;;10373006;28;20109;-60
2022/03/22 10:24:57;;;;;;;11.80;7.20;;;17.10;59.40;;;;;;10373207;28;20061;-59
2022/03/22 10:30:01;;;;;;;8.00;6.55;;;17.10;59.30;;;;;;10372822;28;20046;-59
2022/03/22 10:35:17;;;;;;;8.73;6.07;;;17.10;59.20;;;;;;10381814;28;20156;-59
2022/03/22 10:40:50;;;;;;;9.52;6.47;;;17.10;59.30;;;;;;10401351;28;20041;-59
2022/03/22 10:45:56;;;;;;;7.97;6.13;;;17.10;59.40;;;;;;10386843;28;20077;-58
2022/03/22 10:50:59;;;;;;;9.20;6.40;;;17.10;59.10;;;;;;10372252;28;20030;-58
2022/03/22 10:56:02;;;;;;;8.38;6.70;;;17.20;59.20;;;;;;10383912;28;20030;-58
2022/03/22 11:01:06;;;;;;;7.63;6.10;;;17.20;59.10;;;;;;10372205;28;20481;-59
2022/03/22 11:06:07;;;;;;;9.05;7.03;;;17.20;59.20;;;;;;10380841;28;20034;-59
2022/03/22 11:11:09;;;;;;;7.72;5.88;;;17.20;59.00;;;;;;10371743;28;20036;-58
2022/03/22 11:16:10;;;;;;;8.25;7.07;;;17.30;58.90;;;;;;10353805;28;20490;-59
2022/03/22 11:21:18;;;;;;;8.80;6.78;;;17.30;58.80;;;;;;10367363;28;20037;-59
2022/03/22 11:26:22;;;;;;;8.07;6.03;;;17.30;58.80;;;;;;10367519;28;20493;-59
2022/03/22 11:31:26;;;;;;;6.97;5.22;;;17.40;58.80;;;;;;10342746;28;20050;-59
2022/03/22 11:36:47;;;;;;;7.30;6.15;;;17.40;58.60;;;;;;10330645;28;20042;-59
2022/03/22 11:47:18;;;;;;;10.15;6.43;;;17.50;58.60;;;;;;10345697;28;20046;-58
2022/03/22 11:52:32;;;;;;;7.10;5.05;;;17.50;58.50;;;;;;10366997;28;20076;-59
2022/03/22 11:57:44;;;;;;;6.22;4.93;;;17.50;58.50;;;;;;10330303;28;20037;-59
2022/03/22 12:02:52;;;;;;;6.45;5.75;;;17.50;58.50;;;;;;10345041;28;20506;-58
2022/03/22 12:07:52;;;;;;;7.63;5.85;;;17.50;58.50;;;;;;10339370;28;20038;-58
2022/03/22 12:12:55;;;;;;;6.72;5.15;;;17.50;58.60;;;;;;10340377;28;20049;-59
2022/03/22 12:17:57;;;;;;;6.72;4.60;;;17.60;58.30;;;;;;10347795;28;20376;-58
2022/03/22 12:22:59;;;;;;;8.80;5.85;;;17.60;58.40;;;;;;10355922;28;20025;-60
2022/03/22 12:28:10;;;;;;;8.43;6.63;;;17.60;58.50;;;;;;10367770;28;20425;-58
2022/03/22 12:33:24;;;;;;;9.52;5.97;;;17.60;58.50;;;;;;10398237;28;20030;-59
2022/03/22 12:38:24;;;;;;;7.93;5.70;;;17.60;58.50;;;;;;10394289;28;20040;-58
2022/03/22 12:43:25;;;;;;;8.65;6.13;;;17.70;58.40;;;;;;10380424;28;20434;-58
2022/03/22 12:48:26;;;;;;;7.82;6.05;;;17.60;58.60;;;;;;10394507;28;20038;-58
2022/03/22 12:53:26;;;;;;;7.13;5.75;;;17.70;58.60;;;;;;10392261;28;20054;-58
2022/03/22 12:58:30;;;;;;;8.35;5.75;;;17.70;58.60;;;;;;10374788;28;20112;-58
2022/03/22 13:03:32;;;;;;;8.68;6.45;;;17.80;58.60;;;;;;10375942;28;20464;-58
2022/03/22 13:19:18;;;;;;;9.73;6.63;;;17.80;58.70;;;;;;10370192;28;20034;-58
2022/03/22 13:24:27;;;;;;;16.52;7.50;;;17.90;59.00;;;;;;10405010;28;20061;-59
2022/03/22 13:29:42;;;;;;;11.35;6.20;;;17.90;58.50;;;;;;10385623;28;20081;-58
2022/03/22 13:34:46;;;;;;;12.55;7.07;;;17.80;58.50;;;;;;10371679;28;20064;-59
2022/03/22 13:39:51;;;;;;;8.55;6.15;;;17.80;58.60;;;;;;10391891;28;20458;-58
2022/03/22 13:44:57;;;;;;;9.43;6.15;;;17.90;58.70;;;;;;10392469;28;20120;-58
2022/03/22 13:50:20;;;;;;;9.43;6.93;;;17.90;58.50;;;;;;10390673;28;20026;-58
2022/03/22 13:55:22;;;;;;;10.30;6.72;;;17.90;58.50;;;;;;10383520;28;20030;-58
2022/03/22 14:00:23;;;;;;;10.82;6.40;;;17.90;58.60;;;;;;10384429;28;20037;-58
2022/03/22 14:05:24;;;;;;;13.50;6.68;;;17.90;58.60;;;;;;10393937;28;20025;-58
2022/03/22 14:10:28;;;;;;;11.60;6.20;;;17.90;58.60;;;;;;10385798;28;20029;-60
2022/03/22 14:15:31;;;;;;;9.07;6.03;;;17.90;58.40;;;;;;10390328;28;20026;-59
2022/03/22 14:20:32;;;;;;;12.07;6.82;;;17.90;58.40;;;;;;10356868;28;20065;-58
2022/03/22 14:25:36;;;;;;;9.77;6.13;;;17.90;58.50;;;;;;10373943;28;20053;-58
2022/03/22 14:30:40;;;;;;;9.07;6.20;;;17.90;58.70;;;;;;10373550;28;20513;-59
2022/03/22 14:35:47;;;;;;;8.07;6.15;;;17.90;58.40;;;;;;10367774;28;20494;-59
2022/03/22 14:40:51;;;;;;;8.68;6.05;;;17.90;58.40;;;;;;10372785;28;20033;-57
2022/03/22 14:45:53;;;;;;;8.00;6.55;;;17.90;58.30;;;;;;10375754;28;20489;-59
2022/03/22 14:50:56;;;;;;;9.30;5.45;;;17.90;58.20;;;;;;10390625;28;20044;-59
2022/03/22 15:01:17;;;;;;;8.57;5.67;;;18.00;58.00;;;;;;10382390;28;20108;-59
2022/03/22 15:06:18;;;;;;;8.98;6.30;;;17.90;58.30;;;;;;10392920;28;20120;-60
2022/03/22 15:11:19;;;;;;;10.20;6.07;;;17.90;58.40;;;;;;10392911;28;20026;-60
2022/03/22 15:16:20;;;;;;;8.00;5.70;;;17.90;58.50;;;;;;10412690;28;20029;-60
2022/03/22 15:21:21;;;;;;;7.60;5.45;;;17.90;58.50;;;;;;10400677;28;20033;-60
2022/03/22 15:26:23;;;;;;;7.20;5.57;;;17.90;58.70;;;;;;10369511;28;20029;-60
2022/03/22 15:31:23;;;;;;;8.88;6.25;;;17.90;58.50;;;;;;10369196;28;20044;-60
2022/03/22 15:36:24;;;;;;;10.27;5.82;;;17.90;58.50;;;;;;10367570;28;20479;-61
2022/03/22 15:41:24;;;;;;;8.70;5.45;;;17.90;58.40;;;;;;10370058;28;20022;-61
2022/03/22 15:46:25;;;;;;;7.13;5.75;;;17.90;58.60;;;;;;10378201;28;20040;-59
2022/03/22 15:51:26;;;;;;;8.35;6.47;;;17.90;58.60;;;;;;10408139;28;20091;-59
2022/03/22 15:56:27;;;;;;;9.13;6.30;;;17.90;58.50;;;;;;10382125;28;20561;-59
2022/03/22 16:01:29;;;;;;;8.38;6.20;;;17.90;58.40;;;;;;10400875;28;20064;-60
2022/03/22 16:06:30;;;;;;;9.15;6.25;;;17.90;58.50;;;;;;10395940;28;20030;-60
2022/03/22 16:11:30;;;;;;;8.88;6.28;;;17.90;58.60;;;;;;10393414;28;20042;-60
2022/03/22 16:16:31;;;;;;;15.68;8.68;;;17.90;58.80;;;;;;10382032;28;20381;-60
2022/03/22 16:21:32;;;;;;;13.77;8.57;;;17.90;59.50;;;;;;10384118;28;20609;-60
2022/03/22 16:26:33;;;;;;;18.83;8.73;;;17.80;59.70;;;;;;10397380;28;20481;-60
2022/03/22 16:31:33;;;;;;;22.15;11.10;;;17.80;59.60;;;;;;10380459;28;20143;-61
2022/03/22 16:36:52;;;;;;;19.88;9.02;;;17.80;59.60;;;;;;10377474;28;20061;-61
2022/03/22 16:42:05;;;;;;;18.57;9.73;;;17.80;59.60;;;;;;10377723;28;20116;-61
2022/03/22 16:47:11;;;;;;;16.48;8.25;;;17.70;59.50;;;;;;10390617;28;20041;-60
2022/03/22 16:52:15;;;;;;;15.07;10.50;;;17.80;59.70;;;;;;10394230;28;20040;-60
2022/03/22 16:57:15;;;;;;;15.63;8.57;;;17.70;59.50;;;;;;10382714;28;20029;-60
2022/03/22 17:02:16;;;;;;;16.33;8.10;;;17.70;59.50;;;;;;10385354;28;20041;-59
2022/03/22 17:07:17;;;;;;;10.80;7.97;;;17.70;59.60;;;;;;10393062;28;20045;-61
2022/03/22 17:12:17;;;;;;;15.27;8.07;;;17.60;59.20;;;;;;10394021;28;20863;-59
2022/03/22 17:17:19;;;;;;;15.38;8.85;;;17.60;58.80;;;;;;10394077;28;20055;-59
2022/03/22 17:22:20;;;;;;;22.63;9.32;;;17.60;58.50;;;;;;10373312;28;20413;-59
2022/03/22 17:27:21;;;;;;;23.52;10.18;;;17.70;59.30;;;;;;10414735;28;20054;-58
2022/03/22 17:32:24;;;;;;;16.45;8.98;;;17.90;59.40;;;;;;10415448;28;20517;-59
2022/03/22 17:37:25;;;;;;;19.48;9.38;;;18.00;59.50;;;;;;10380034;28;20032;-61
2022/03/22 17:42:26;;;;;;;22.83;9.07;;;18.10;59.70;;;;;;10375014;28;20044;-59
2022/03/22 17:47:26;;;;;;;19.90;9.65;;;18.00;60.00;;;;;;10379867;28;20029;-60
2022/03/22 17:52:27;;;;;;;41.88;11.05;;;17.90;60.70;;;;;;10409560;28;20075;-62
2022/03/22 17:57:28;;;;;;;27.55;9.38;;;17.80;60.30;;;;;;10397177;28;20069;-63
2022/03/22 18:02:29;;;;;;;19.27;8.60;;;17.80;60.90;;;;;;10382428;28;20555;-63
2022/03/22 18:07:30;;;;;;;21.52;8.07;;;17.80;61.10;;;;;;10392396;28;20473;-62
2022/03/22 18:12:30;;;;;;;16.75;8.55;;;17.70;61.20;;;;;;10383550;28;20108;-60
2022/03/22 18:17:32;;;;;;;19.15;8.32;;;17.70;61.20;;;;;;10413023;28;20470;-62
2022/03/22 18:22:35;;;;;;;27.15;8.00;;;17.70;61.00;;;;;;10391668;28;20030;-62
2022/03/22 18:27:37;;;;;;;16.48;7.72;;;17.60;60.60;;;;;;10388298;28;20452;-60
2022/03/22 18:32:39;;;;;;;28.55;9.10;;;17.60;60.70;;;;;;10372634;28;20037;-61
2022/03/22 18:37:42;;;;;;;23.40;7.72;;;17.60;61.50;;;;;;10381128;28;20437;-61
2022/03/22 18:42:44;;;;;;;26.35;7.75;;;17.60;61.20;;;;;;10374889;28;20030;-60
2022/03/22 18:47:45;;;;;;;16.35;7.07;;;17.70;61.20;;;;;;10390224;28;20078;-61
2022/03/22 18:52:47;;;;;;;18.52;8.38;;;17.70;61.30;;;;;;10383785;28;20041;-60
2022/03/22 18:57:48;;;;;;;16.45;7.05;;;17.70;61.30;;;;;;10381191;28;20045;-61
2022/03/22 19:02:49;;;;;;;15.38;6.95;;;17.70;61.30;;;;;;10379292;28;20108;-61
2022/03/22 19:07:51;;;;;;;15.60;8.25;;;17.70;61.40;;;;;;10382173;28;20034;-60
2022/03/22 19:12:53;;;;;;;15.35;7.20;;;17.60;60.90;;;;;;10388964;28;20026;-61
2022/03/22 19:17:55;;;;;;;15.63;8.35;;;17.60;61.00;;;;;;10380222;28;20070;-59
2022/03/22 19:22:56;;;;;;;17.83;8.38;;;17.60;61.00;;;;;;10374189;28;20033;-60
2022/03/22 19:28:00;;;;;;;14.48;7.75;;;17.60;60.90;;;;;;10392512;28;20053;-60
2022/03/22 19:33:06;;;;;;;12.82;7.28;;;17.60;60.80;;;;;;10395130;28;20034;-59
2022/03/22 19:38:08;;;;;;;14.98;8.80;;;17.50;60.60;;;;;;10376054;28;20030;-60
2022/03/22 19:43:11;;;;;;;18.45;7.38;;;17.50;60.60;;;;;;10382719;28;20482;-60
2022/03/22 19:48:14;;;;;;;14.02;7.45;;;17.50;60.50;;;;;;10390480;28;20552;-60
2022/03/22 19:53:17;;;;;;;9.55;7.10;;;17.50;60.40;;;;;;10393214;28;20034;-60
2022/03/22 19:58:20;;;;;;;12.55;7.13;;;17.50;60.40;;;;;;10394324;28;20056;-59
2022/03/22 20:03:22;;;;;;;12.20;5.93;;;17.50;60.40;;;;;;10397032;28;20478;-60
2022/03/22 20:08:23;;;;;;;8.70;6.38;;;17.50;60.40;;;;;;10371906;28;20077;-61
2022/03/22 20:13:25;;;;;;;10.30;6.43;;;17.50;60.20;;;;;;10396717;28;20026;-60
2022/03/22 20:18:26;;;;;;;11.77;7.03;;;17.50;59.90;;;;;;10395633;28;20382;-60
2022/03/22 20:23:27;;;;;;;9.30;5.60;;;17.50;59.80;;;;;;10388276;28;20030;-60
2022/03/22 20:28:29;;;;;;;9.98;6.63;;;17.50;59.80;;;;;;10391631;28;20073;-60
2022/03/22 20:33:31;;;;;;;11.80;7.22;;;17.50;59.70;;;;;;10397606;28;20022;-60
2022/03/22 20:38:31;;;;;;;11.02;5.95;;;17.50;59.70;;;;;;10400891;28;20038;-60
2022/03/22 20:43:32;;;;;;;12.48;7.45;;;17.50;59.70;;;;;;10391371;28;20490;-60
2022/03/22 20:48:33;;;;;;;10.13;6.47;;;17.50;59.60;;;;;;10374704;28;20073;-60
2022/03/22 20:53:34;;;;;;;11.48;6.75;;;17.40;59.60;;;;;;10378811;28;20079;-59
2022/03/22 21:03:54;;;;;;;10.50;7.28;;;17.40;59.20;;;;;;10380562;28;20057;-60
2022/03/22 21:08:55;;;;;;;13.57;6.95;;;17.40;59.10;;;;;;10390452;28;20053;-60
2022/03/22 21:13:57;;;;;;;12.27;7.38;;;17.40;59.00;;;;;;10391917;28;20029;-60
2022/03/22 21:18:58;;;;;;;9.48;6.78;;;17.40;58.80;;;;;;10392830;28;20600;-61
2022/03/22 21:23:59;;;;;;;8.98;6.45;;;17.40;59.00;;;;;;10393896;28;20029;-60
2022/03/22 21:29:00;;;;;;;9.25;6.65;;;17.40;58.70;;;;;;10414229;28;20120;-61
2022/03/22 21:34:01;;;;;;;9.02;6.53;;;17.40;58.70;;;;;;10374262;28;20080;-60
2022/03/22 21:39:02;;;;;;;10.68;7.43;;;17.40;58.60;;;;;;10416674;28;20032;-60
2022/03/22 21:44:03;;;;;;;12.13;7.20;;;17.40;58.60;;;;;;10393070;28;20041;-60
2022/03/22 21:49:04;;;;;;;9.90;7.60;;;17.30;58.40;;;;;;10375016;28;20108;-60
2022/03/22 21:54:05;;;;;;;8.70;6.60;;;17.30;58.40;;;;;;10386316;28;20030;-61
2022/03/22 21:59:05;;;;;;;12.05;7.05;;;17.30;58.30;;;;;;10341518;28;20127;-61
2022/03/22 22:04:07;;;;;;;12.30;7.13;;;17.30;58.20;;;;;;10377503;28;20152;-60
2022/03/22 22:09:07;;;;;;;11.93;7.03;;;17.30;58.20;;;;;;10415591;28;20026;-60
2022/03/22 22:14:09;;;;;;;11.68;7.07;;;17.30;58.10;;;;;;10391150;28;20033;-60
2022/03/22 22:19:10;;;;;;;10.45;7.28;;;17.30;58.10;;;;;;10374402;28;20028;-61
2022/03/22 22:24:11;;;;;;;10.02;7.97;;;17.30;58.10;;;;;;10373908;28;20026;-60
2022/03/22 22:29:11;;;;;;;9.40;6.60;;;17.20;57.90;;;;;;10373838;28;20042;-60
2022/03/22 22:34:12;;;;;;;9.80;7.07;;;17.20;57.90;;;;;;10376926;28;20104;-61
2022/03/22 22:39:13;;;;;;;9.95;7.53;;;17.30;57.90;;;;;;10414438;28;20028;-59
2022/03/22 22:44:14;;;;;;;11.48;7.63;;;17.20;57.70;;;;;;10414292;28;20059;-59
2022/03/22 22:49:15;;;;;;;7.95;6.15;;;17.20;57.60;;;;;;10414144;28;20026;-60
2022/03/22 22:54:17;;;;;;;8.40;6.15;;;17.20;57.70;;;;;;10394156;28;20442;-60
2022/03/22 22:59:18;;;;;;;9.57;6.43;;;17.20;57.60;;;;;;10372934;28;20105;-60
2022/03/22 23:04:18;;;;;;;8.98;6.85;;;17.20;57.50;;;;;;10372408;28;20036;-60
2022/03/22 23:14:38;;;;;;;10.33;6.80;;;17.20;57.50;;;;;;10402070;28;20397;-60
2022/03/22 23:19:39;;;;;;;8.43;5.75;;;17.20;57.50;;;;;;10382496;28;20108;-60
2022/03/22 23:24:40;;;;;;;9.57;7.00;;;17.20;57.30;;;;;;10413142;28;20042;-60
2022/03/22 23:29:41;;;;;;;10.13;6.57;;;17.30;57.10;;;;;;10413017;28;20073;-61
2022/03/22 23:34:41;;;;;;;10.88;6.80;;;17.30;57.00;;;;;;10361768;28;20101;-60
2022/03/22 23:39:42;;;;;;;9.48;6.20;;;17.20;57.00;;;;;;10372037;28;20030;-60
2022/03/22 23:44:43;;;;;;;9.45;6.63;;;17.20;56.90;;;;;;10371998;28;20068;-61
2022/03/22 23:49:43;;;;;;;10.90;6.70;;;17.20;57.00;;;;;;10367444;28;20076;-60
2022/03/22 23:54:44;;;;;;;8.15;6.70;;;17.20;56.80;;;;;;10384072;28;20042;-60
2022/03/22 23:59:45;;;;;;;8.43;6.93;;;17.20;57.30;;;;;;10371835;28;20076;-61
